Pagrindinis puslapis
METAR-TAF:

METAR-TAF

Oro uostai :

San Paulas, San Paulas, Brazilija

platuma: 23-31S, ilguma: 046-38W, Aukštis: 722 m

Dabartinis oras

Ataskaita buvo paskelbta 54 minutes, ne 09:00 UTC
Vėjas 4 kt iš Rytų
Temperatūra 19°C
Drėgmė 83%
Slėgis 1015 hPa
Matomumas 10 km arba daugiau
nėra debesų žemiau 1500 m ir nėra kamuolinių lietaus debesų

METAR: SBMT 090900Z 09004KT CAVOK 19/16 Q1015

Laikas: 06:54 (09:54 UTC)


TAF: trūkstamas

Orai ataskaitas ir orų prognozės (METAR, TAF).

turimą stotys yra geltonos ir raudonos taškus žemėlapyje.

Perkelti pele per norėdami pamatyti stoties vardą.

Tada spustelėkite, norėdami matyti oro stebėjimo ir prognozės.

Norėdami pakeisti žemėlapį: spustelėkite ant žalios mygtukų su juodo kryžiaus žemyn,; žalią mygtuką su brūkšneliu, jei norite nutolinti; arba žalių rodyklių gretimoms žemėlapius.


METAR-TAF: